Time;durP1;ratioP1;P1;durP2;ratioP2;P2;SDS_P1;SDS_P2;PMS_P1;PMS_P2;Temp;Humidity;BMP_temperature;BMP_pressure;BME280_temperature;BME280_humidity;BME280_pressure;Samples;Min_cycle;Max_cycle;Signal;HPM_P1;HPM_P2
2022/07/23 00:00:33;;;;;;;0.10;0.10;;;15.70;99.90;;;;;;5019767;28;20271;-79
2022/07/23 00:02:58;;;;;;;0.10;0.10;;;15.70;99.90;;;;;;5021355;28;20679;-79
2022/07/23 00:05:24;;;;;;;0.10;0.10;;;15.60;99.90;;;;;;4999081;28;20491;-79
2022/07/23 00:07:49;;;;;;;0.10;0.10;;;15.60;99.90;;;;;;5015748;28;20186;-79
2022/07/23 00:10:15;;;;;;;0.10;0.10;;;15.60;99.90;;;;;;5002311;28;20724;-78
2022/07/23 00:12:41;;;;;;;0.10;0.10;;;15.60;99.90;;;;;;5007255;28;20271;-79
2022/07/23 00:15:08;;;;;;;0.10;0.10;;;15.60;99.90;;;;;;5013745;28;20194;-79
2022/07/23 00:17:33;;;;;;;0.10;0.10;;;15.60;99.90;;;;;;5024440;28;20770;-81
2022/07/23 00:19:59;;;;;;;0.10;0.10;;;15.60;99.90;;;;;;5023072;28;21001;-81
2022/07/23 00:22:25;;;;;;;0.10;0.10;;;15.60;99.90;;;;;;5012354;28;20279;-81
2022/07/23 00:24:51;;;;;;;0.10;0.10;;;15.60;99.90;;;;;;5017305;28;21026;-81
2022/07/23 00:27:16;;;;;;;0.10;0.10;;;15.60;99.90;;;;;;5007753;28;20450;-81
2022/07/23 00:29:42;;;;;;;0.10;0.10;;;15.60;99.90;;;;;;5022195;28;20281;-81
2022/07/23 00:32:07;;;;;;;0.10;0.10;;;15.60;99.90;;;;;;5025519;28;20654;-79
2022/07/23 00:34:33;;;;;;;0.10;0.10;;;15.60;99.90;;;;;;5011828;28;20207;-79
2022/07/23 00:36:58;;;;;;;0.10;0.10;;;15.60;99.90;;;;;;5020755;28;20184;-79
2022/07/23 00:39:24;;;;;;;0.10;0.10;;;15.60;99.90;;;;;;5011225;28;20434;-79
2022/07/23 00:41:50;;;;;;;0.10;0.10;;;15.60;99.90;;;;;;5021243;28;20639;-78
2022/07/23 00:44:28;;;;;;;0.10;0.10;;;15.50;99.90;;;;;;4998045;28;20195;-78
2022/07/23 00:46:55;;;;;;;0.10;0.10;;;15.40;99.90;;;;;;4998798;28;20472;-79
2022/07/23 00:49:23;;;;;;;0.10;0.10;;;15.50;99.90;;;;;;5015618;28;20797;-80
2022/07/23 00:51:50;;;;;;;0.10;0.10;;;15.40;99.90;;;;;;5010112;28;20457;-79
2022/07/23 00:54:17;;;;;;;0.10;0.10;;;15.40;99.90;;;;;;5021832;28;20535;-79
2022/07/23 00:56:46;;;;;;;0.10;0.10;;;15.50;99.90;;;;;;5002151;28;20973;-78
2022/07/23 00:59:13;;;;;;;0.10;0.10;;;15.50;99.90;;;;;;5017408;28;20474;-79
2022/07/23 01:01:39;;;;;;;0.10;0.10;;;15.40;99.90;;;;;;5017928;28;20450;-79
2022/07/23 01:04:04;;;;;;;0.10;0.10;;;15.50;99.90;;;;;;5006167;28;20442;-79
2022/07/23 01:06:35;;;;;;;0.10;0.10;;;15.50;99.90;;;;;;5006050;28;20222;-79
2022/07/23 01:09:00;;;;;;;0.10;0.10;;;15.40;99.90;;;;;;5019144;28;20187;-79
2022/07/23 01:11:26;;;;;;;0.10;0.10;;;15.40;99.90;;;;;;5008561;28;20514;-78
2022/07/23 01:13:52;;;;;;;0.10;0.10;;;15.30;99.90;;;;;;5022545;28;20191;-79
2022/07/23 01:16:17;;;;;;;0.10;0.10;;;15.40;99.90;;;;;;5026304;28;20307;-79
2022/07/23 01:18:42;;;;;;;0.10;0.10;;;15.40;99.90;;;;;;5025784;28;20664;-79
2022/07/23 01:21:15;;;;;;;0.10;0.10;;;15.40;99.90;;;;;;5029023;28;20192;-78
2022/07/23 01:23:40;;;;;;;0.10;0.10;;;15.30;99.90;;;;;;5028282;28;20267;-79
2022/07/23 01:26:06;;;;;;;0.10;0.10;;;15.30;99.90;;;;;;5011010;28;20635;-79
2022/07/23 01:28:32;;;;;;;0.10;0.10;;;15.30;99.90;;;;;;5002160;28;20219;-79
2022/07/23 01:30:58;;;;;;;0.10;0.10;;;15.30;99.90;;;;;;5020214;28;20199;-78
2022/07/23 01:33:23;;;;;;;0.10;0.10;;;15.40;99.90;;;;;;5001609;28;20438;-78
2022/07/23 01:35:49;;;;;;;0.10;0.10;;;15.40;99.90;;;;;;5019212;28;20201;-79
2022/07/23 01:38:14;;;;;;;0.10;0.10;;;15.40;99.90;;;;;;5022121;28;20693;-79
2022/07/23 01:40:40;;;;;;;0.10;0.10;;;15.40;99.90;;;;;;5026225;28;20191;-80
2022/07/23 01:43:05;;;;;;;0.10;0.10;;;15.40;99.90;;;;;;5023057;28;20699;-79
2022/07/23 01:45:31;;;;;;;0.10;0.10;;;15.40;99.90;;;;;;5023258;28;20306;-79
2022/07/23 01:47:56;;;;;;;0.10;0.10;;;15.40;99.90;;;;;;5012354;28;20254;-79
2022/07/23 01:50:22;;;;;;;0.10;0.10;;;15.30;99.90;;;;;;5000603;28;20192;-79
2022/07/23 01:52:47;;;;;;;0.10;0.10;;;15.30;99.90;;;;;;5025182;28;20184;-79
2022/07/23 01:55:13;;;;;;;0.10;0.10;;;15.30;99.90;;;;;;5022545;28;20283;-79
2022/07/23 01:57:38;;;;;;;0.10;0.10;;;15.20;99.90;;;;;;5028084;28;20640;-79
2022/07/23 02:00:04;;;;;;;0.10;0.10;;;15.20;99.90;;;;;;4997775;28;20653;-79
2022/07/23 02:02:30;;;;;;;0.10;0.10;;;15.20;99.90;;;;;;5009929;28;20653;-79
2022/07/23 02:04:55;;;;;;;0.10;0.10;;;15.20;99.90;;;;;;5006224;28;20466;-79
2022/07/23 02:07:21;;;;;;;0.10;0.10;;;15.20;99.90;;;;;;5000714;28;20188;-78
2022/07/23 02:09:46;;;;;;;0.10;0.10;;;15.20;99.90;;;;;;5003494;28;20209;-79
2022/07/23 02:12:12;;;;;;;0.10;0.10;;;15.20;99.90;;;;;;5001336;28;20205;-78
2022/07/23 02:14:37;;;;;;;0.10;0.10;;;15.20;99.90;;;;;;4983778;28;20197;-78
2022/07/23 02:17:03;;;;;;;0.10;0.10;;;15.20;99.90;;;;;;5003320;28;20199;-78
2022/07/23 02:19:29;;;;;;;0.10;0.10;;;15.20;99.90;;;;;;5003927;28;20214;-79
2022/07/23 02:21:54;;;;;;;0.10;0.10;;;15.20;99.90;;;;;;5008660;28;20235;-78
2022/07/23 02:24:20;;;;;;;0.10;0.10;;;15.20;99.90;;;;;;4996472;28;20192;-79
2022/07/23 02:26:46;;;;;;;0.10;0.10;;;15.10;99.90;;;;;;4995071;28;20287;-78
2022/07/23 02:29:11;;;;;;;0.10;0.10;;;15.20;99.90;;;;;;5006070;28;21195;-78
2022/07/23 02:31:37;;;;;;;0.10;0.10;;;15.20;99.90;;;;;;5000760;28;20211;-78
2022/07/23 02:34:03;;;;;;;0.10;0.10;;;15.10;99.90;;;;;;5021883;28;20188;-79
2022/07/23 02:36:29;;;;;;;0.10;0.10;;;15.20;99.90;;;;;;4997250;28;20191;-79
2022/07/23 02:38:55;;;;;;;0.10;0.10;;;15.10;99.90;;;;;;5010151;28;20195;-79
2022/07/23 02:41:21;;;;;;;0.10;0.10;;;15.10;99.90;;;;;;5003019;28;20450;-78
2022/07/23 02:43:46;;;;;;;0.10;0.10;;;15.10;99.90;;;;;;5003899;28;20258;-79
2022/07/23 02:46:12;;;;;;;0.10;0.10;;;15.10;99.90;;;;;;5011218;28;20223;-79
2022/07/23 02:48:38;;;;;;;0.10;0.10;;;15.00;99.90;;;;;;4993823;28;20271;-79
2022/07/23 02:51:03;;;;;;;0.10;0.10;;;15.10;99.90;;;;;;5003250;28;20536;-79
2022/07/23 02:53:29;;;;;;;0.10;0.10;;;15.10;99.90;;;;;;5010418;28;22044;-78
2022/07/23 02:55:54;;;;;;;0.10;0.10;;;15.10;99.90;;;;;;5008248;28;20192;-78
2022/07/23 02:58:21;;;;;;;0.10;0.10;;;15.10;99.90;;;;;;5011521;28;20255;-79
2022/07/23 03:00:46;;;;;;;0.10;0.10;;;15.10;99.90;;;;;;5017644;28;20559;-79
2022/07/23 03:03:12;;;;;;;0.10;0.10;;;15.10;99.90;;;;;;5027551;28;20445;-79
2022/07/23 03:05:38;;;;;;;0.10;0.10;;;15.00;99.90;;;;;;5012861;28;20222;-79
2022/07/23 03:08:03;;;;;;;0.10;0.10;;;15.10;99.90;;;;;;5025092;28;20196;-79
2022/07/23 03:10:29;;;;;;;0.10;0.10;;;15.10;99.90;;;;;;5010788;28;20191;-79
2022/07/23 03:12:54;;;;;;;0.10;0.10;;;15.00;99.90;;;;;;5028606;28;20905;-79
2022/07/23 03:15:20;;;;;;;0.10;0.10;;;14.90;99.90;;;;;;5014213;28;20265;-78
2022/07/23 03:17:45;;;;;;;0.10;0.10;;;14.90;99.90;;;;;;5021345;28;20188;-78
2022/07/23 03:20:11;;;;;;;0.10;0.10;;;14.90;99.90;;;;;;5011426;28;20191;-79
2022/07/23 03:22:36;;;;;;;0.10;0.10;;;15.00;99.90;;;;;;5028026;28;20267;-78
2022/07/23 03:25:02;;;;;;;0.10;0.10;;;14.90;99.90;;;;;;5005172;28;20675;-78
2022/07/23 03:27:29;;;;;;;0.10;0.10;;;15.00;99.90;;;;;;5003979;28;20215;-80
2022/07/23 03:29:57;;;;;;;0.20;0.20;;;15.00;99.90;;;;;;5026918;28;20194;-78
2022/07/23 03:32:23;;;;;;;0.10;0.10;;;15.00;99.90;;;;;;5005452;28;20473;-79
2022/07/23 03:34:49;;;;;;;0.10;0.10;;;15.00;99.90;;;;;;5026639;28;20524;-79
2022/07/23 03:37:15;;;;;;;0.10;0.10;;;15.00;99.90;;;;;;5023286;28;20445;-78
2022/07/23 03:39:41;;;;;;;0.10;0.10;;;14.90;99.90;;;;;;5025747;28;20188;-78
2022/07/23 03:42:07;;;;;;;0.10;0.10;;;15.00;99.90;;;;;;5024167;28;20474;-79
2022/07/23 03:44:33;;;;;;;0.10;0.10;;;15.00;99.90;;;;;;5022559;28;20241;-78
2022/07/23 03:46:58;;;;;;;0.10;0.10;;;14.90;99.90;;;;;;5024967;28;20446;-79
2022/07/23 03:49:24;;;;;;;0.10;0.10;;;14.90;99.90;;;;;;5023144;28;21021;-79
2022/07/23 03:51:50;;;;;;;0.10;0.10;;;14.90;99.90;;;;;;5009722;28;20275;-79
2022/07/23 03:54:16;;;;;;;0.10;0.10;;;14.80;99.90;;;;;;5004213;28;20184;-79
2022/07/23 03:56:42;;;;;;;0.10;0.10;;;14.90;99.90;;;;;;5004004;28;20172;-79
2022/07/23 03:59:08;;;;;;;0.10;0.10;;;14.90;99.90;;;;;;5004149;28;20235;-80
2022/07/23 04:01:34;;;;;;;0.10;0.10;;;14.90;99.90;;;;;;5020016;28;20443;-79
2022/07/23 04:03:59;;;;;;;0.10;0.10;;;14.90;99.90;;;;;;5018353;28;20446;-79
2022/07/23 04:06:25;;;;;;;0.10;0.10;;;14.90;99.90;;;;;;5023277;28;20739;-79
2022/07/23 04:08:50;;;;;;;0.10;0.10;;;15.00;99.90;;;;;;5005110;28;20184;-79
2022/07/23 04:11:16;;;;;;;0.10;0.10;;;15.00;99.90;;;;;;5009373;28;20207;-78
2022/07/23 04:13:41;;;;;;;0.10;0.10;;;15.00;99.90;;;;;;5022369;28;20188;-78
2022/07/23 04:16:07;;;;;;;0.10;0.10;;;15.00;99.90;;;;;;5010564;28;20192;-79
2022/07/23 04:18:33;;;;;;;0.10;0.10;;;15.00;99.90;;;;;;5004419;28;20312;-79
2022/07/23 04:20:58;;;;;;;0.10;0.10;;;15.00;99.90;;;;;;4997583;28;22285;-79
2022/07/23 04:23:24;;;;;;;0.10;0.10;;;15.10;99.90;;;;;;5018765;28;20187;-78
2022/07/23 04:25:49;;;;;;;0.10;0.10;;;15.20;99.90;;;;;;5025514;28;20575;-79
2022/07/23 04:28:15;;;;;;;0.10;0.10;;;15.20;99.90;;;;;;5021628;28;20187;-79
2022/07/23 04:30:40;;;;;;;0.10;0.10;;;15.20;99.90;;;;;;5025679;28;20199;-79
2022/07/23 04:33:06;;;;;;;0.10;0.10;;;15.30;99.90;;;;;;5008262;28;20190;-79
2022/07/23 04:35:33;;;;;;;0.10;0.10;;;15.30;99.90;;;;;;5016429;28;20645;-79
2022/07/23 04:37:59;;;;;;;0.10;0.10;;;15.30;99.90;;;;;;5023131;28;20175;-79
2022/07/23 04:40:25;;;;;;;0.10;0.10;;;15.30;99.90;;;;;;5019511;28;20452;-79
2022/07/23 04:42:51;;;;;;;0.10;0.10;;;15.30;99.90;;;;;;5003533;28;20226;-79
2022/07/23 04:45:16;;;;;;;0.10;0.10;;;15.30;99.90;;;;;;5009580;28;20564;-79
2022/07/23 04:47:42;;;;;;;0.10;0.10;;;15.30;99.90;;;;;;5024592;28;20192;-79
2022/07/23 04:50:09;;;;;;;0.10;0.10;;;15.30;99.90;;;;;;5022925;28;20191;-79
2022/07/23 04:52:34;;;;;;;0.10;0.10;;;15.30;99.90;;;;;;5008562;28;20188;-79
2022/07/23 04:55:00;;;;;;;0.10;0.10;;;15.30;99.90;;;;;;5025839;28;21139;-79
2022/07/23 04:57:25;;;;;;;0.10;0.10;;;15.30;99.90;;;;;;5018767;28;20617;-79
2022/07/23 04:59:51;;;;;;;0.10;0.10;;;15.30;99.90;;;;;;5024714;28;20205;-78
2022/07/23 05:02:16;;;;;;;0.10;0.10;;;15.30;99.90;;;;;;5006682;28;21174;-79
2022/07/23 05:04:43;;;;;;;0.10;0.10;;;15.30;99.90;;;;;;5027465;28;20227;-78
2022/07/23 05:07:08;;;;;;;0.10;0.10;;;15.30;99.90;;;;;;5024010;28;20504;-79
2022/07/23 05:09:34;;;;;;;0.10;0.10;;;15.30;99.90;;;;;;5029260;28;20199;-79
2022/07/23 05:12:00;;;;;;;0.10;0.10;;;15.20;99.90;;;;;;5030727;28;20195;-79
2022/07/23 05:14:25;;;;;;;0.10;0.10;;;15.30;99.90;;;;;;5023494;28;20770;-79
2022/07/23 05:16:51;;;;;;;0.10;0.10;;;15.20;99.90;;;;;;5024222;28;20731;-79
2022/07/23 05:19:16;;;;;;;0.10;0.10;;;15.10;99.90;;;;;;5013661;28;20179;-79
2022/07/23 05:21:42;;;;;;;0.10;0.10;;;15.20;99.90;;;;;;5015070;28;20702;-80
2022/07/23 05:24:07;;;;;;;0.10;0.10;;;15.40;99.90;;;;;;5030431;28;20191;-78
2022/07/23 05:26:33;;;;;;;0.10;0.10;;;15.40;99.90;;;;;;5026351;28;20547;-78
2022/07/23 05:28:58;;;;;;;0.10;0.10;;;15.50;99.90;;;;;;5012795;28;20700;-79
2022/07/23 05:31:24;;;;;;;0.10;0.10;;;15.50;99.90;;;;;;5009164;28;20202;-79
2022/07/23 05:33:50;;;;;;;0.10;0.10;;;15.40;99.90;;;;;;5009771;28;20585;-78
2022/07/23 05:36:15;;;;;;;0.10;0.10;;;15.40;99.90;;;;;;5022659;28;20786;-79
2022/07/23 05:38:41;;;;;;;0.10;0.10;;;15.50;99.90;;;;;;5026308;28;20188;-79
2022/07/23 05:41:06;;;;;;;0.10;0.10;;;15.60;99.90;;;;;;5010503;28;20650;-79
2022/07/23 05:43:32;;;;;;;0.10;0.10;;;15.70;99.90;;;;;;5022310;28;20185;-80
2022/07/23 05:45:57;;;;;;;0.10;0.10;;;15.80;99.90;;;;;;5009035;28;20272;-78
2022/07/23 05:48:23;;;;;;;0.10;0.10;;;15.80;99.90;;;;;;5013400;28;20608;-79
2022/07/23 05:50:48;;;;;;;0.10;0.10;;;15.80;99.90;;;;;;5028173;28;20207;-79
2022/07/23 05:53:14;;;;;;;0.10;0.10;;;15.80;99.90;;;;;;5030958;28;20223;-79
2022/07/23 05:55:39;;;;;;;0.10;0.10;;;15.90;99.90;;;;;;5010908;28;20705;-79
2022/07/23 05:58:05;;;;;;;0.10;0.10;;;15.90;99.90;;;;;;5006875;28;21050;-80
2022/07/23 06:00:31;;;;;;;0.10;0.10;;;15.80;99.90;;;;;;5030610;28;20188;-79
2022/07/23 06:02:56;;;;;;;0.10;0.10;;;15.80;99.90;;;;;;5027111;28;20188;-79
2022/07/23 06:05:23;;;;;;;0.10;0.10;;;15.80;99.90;;;;;;5026378;28;20896;-80
2022/07/23 06:07:49;;;;;;;0.10;0.10;;;15.90;99.90;;;;;;5028958;28;20187;-79
2022/07/23 06:10:14;;;;;;;0.10;0.10;;;16.00;99.90;;;;;;5012434;28;20434;-82
2022/07/23 06:12:40;;;;;;;0.10;0.10;;;16.00;99.90;;;;;;5024223;28;20185;-80
2022/07/23 06:15:06;;;;;;;0.10;0.10;;;16.00;99.90;;;;;;5023602;28;20706;-81
2022/07/23 06:17:32;;;;;;;0.10;0.10;;;15.90;99.90;;;;;;5013313;28;20499;-82
2022/07/23 06:19:57;;;;;;;0.10;0.10;;;16.00;99.90;;;;;;5010218;28;20962;-81
2022/07/23 06:22:23;;;;;;;0.10;0.10;;;16.00;99.90;;;;;;5014825;28;20180;-81
2022/07/23 06:24:50;;;;;;;0.10;0.10;;;16.00;99.90;;;;;;5006614;28;20211;-81
2022/07/23 06:27:16;;;;;;;0.10;0.10;;;16.00;99.90;;;;;;5027247;28;20535;-81
2022/07/23 06:29:41;;;;;;;0.10;0.10;;;16.00;99.90;;;;;;5024920;28;20442;-81
2022/07/23 06:32:07;;;;;;;0.10;0.10;;;15.90;99.90;;;;;;5030606;28;20762;-79
2022/07/23 06:34:33;;;;;;;0.10;0.10;;;15.90;99.90;;;;;;5025749;28;20271;-79
2022/07/23 06:37:00;;;;;;;0.10;0.10;;;15.90;99.90;;;;;;5027699;28;20521;-79
2022/07/23 06:39:25;;;;;;;0.10;0.10;;;15.80;99.90;;;;;;5024746;28;20184;-78
2022/07/23 06:41:51;;;;;;;0.10;0.10;;;15.80;99.90;;;;;;5008877;28;20464;-77
2022/07/23 06:44:17;;;;;;;0.10;0.10;;;15.80;99.90;;;;;;5029478;28;20184;-78
2022/07/23 06:46:42;;;;;;;0.10;0.10;;;15.80;99.90;;;;;;5026302;28;20288;-78
2022/07/23 06:49:08;;;;;;;0.10;0.10;;;15.80;99.90;;;;;;5028625;28;20196;-78
2022/07/23 06:51:34;;;;;;;0.10;0.10;;;15.90;99.90;;;;;;5028359;28;20188;-79
2022/07/23 06:53:59;;;;;;;0.10;0.10;;;15.90;99.90;;;;;;5025998;28;20179;-79
2022/07/23 06:56:25;;;;;;;0.10;0.10;;;15.90;99.90;;;;;;5021521;28;20447;-78
2022/07/23 06:58:50;;;;;;;0.10;0.10;;;16.00;99.90;;;;;;5007979;28;20266;-78
2022/07/23 07:01:16;;;;;;;0.10;0.10;;;15.90;99.90;;;;;;5024771;28;20194;-78
2022/07/23 07:03:41;;;;;;;0.10;0.10;;;15.80;99.90;;;;;;5010994;28;20188;-78
2022/07/23 07:06:07;;;;;;;0.10;0.10;;;15.80;99.90;;;;;;5029692;28;20222;-79
2022/07/23 07:08:33;;;;;;;0.10;0.10;;;15.90;99.90;;;;;;5027049;28;20183;-77
2022/07/23 07:10:58;;;;;;;0.10;0.10;;;15.80;99.90;;;;;;5017507;28;20194;-78
2022/07/23 07:13:24;;;;;;;0.10;0.10;;;15.70;99.90;;;;;;5021569;28;20329;-78
2022/07/23 07:15:49;;;;;;;0.10;0.10;;;15.80;99.90;;;;;;5027373;28;20754;-78
2022/07/23 07:18:15;;;;;;;0.10;0.10;;;15.70;99.90;;;;;;5030440;28;20620;-78
2022/07/23 07:20:40;;;;;;;0.10;0.10;;;15.70;99.90;;;;;;5010383;28;20195;-78
2022/07/23 07:23:06;;;;;;;0.10;0.10;;;15.80;99.90;;;;;;5024689;28;20195;-78
2022/07/23 07:25:31;;;;;;;0.10;0.10;;;15.70;99.90;;;;;;5026236;28;20255;-78
2022/07/23 07:27:57;;;;;;;0.10;0.10;;;15.70;99.90;;;;;;5028328;28;20187;-78
2022/07/23 07:30:22;;;;;;;0.10;0.10;;;15.60;99.90;;;;;;5030680;28;20191;-79
2022/07/23 07:32:48;;;;;;;0.10;0.10;;;15.60;99.90;;;;;;5022353;28;20179;-78
2022/07/23 07:35:13;;;;;;;0.10;0.10;;;15.60;99.90;;;;;;5021022;28;20631;-78
2022/07/23 07:37:39;;;;;;;0.10;0.10;;;15.70;99.90;;;;;;5026183;28;20192;-79
2022/07/23 07:40:05;;;;;;;0.10;0.10;;;15.60;99.90;;;;;;5000305;28;20180;-78
2022/07/23 07:42:32;;;;;;;0.10;0.10;;;15.50;99.90;;;;;;5022767;28;20183;-78
2022/07/23 07:44:57;;;;;;;0.10;0.10;;;15.60;99.90;;;;;;5027039;28;20519;-78
2022/07/23 07:47:23;;;;;;;0.10;0.10;;;15.60;99.90;;;;;;5024286;28;20458;-77
2022/07/23 07:49:48;;;;;;;0.10;0.10;;;15.60;99.90;;;;;;5025062;28;20179;-79
2022/07/23 07:52:14;;;;;;;0.10;0.10;;;15.70;99.90;;;;;;5024722;28;20195;-78
2022/07/23 07:54:39;;;;;;;0.10;0.10;;;15.70;99.90;;;;;;5027487;28;20195;-78
2022/07/23 07:57:05;;;;;;;0.10;0.10;;;15.80;99.90;;;;;;5020510;28;20296;-78
2022/07/23 07:59:30;;;;;;;0.10;0.10;;;15.90;99.90;;;;;;5028138;28;20230;-78
2022/07/23 08:01:56;;;;;;;0.10;0.10;;;16.10;99.90;;;;;;5024662;28;20179;-77
2022/07/23 08:04:21;;;;;;;0.10;0.10;;;16.00;99.90;;;;;;5030792;28;20255;-78
2022/07/23 08:06:47;;;;;;;0.10;0.10;;;16.20;99.90;;;;;;5012411;28;20234;-78
2022/07/23 08:09:12;;;;;;;0.10;0.10;;;16.40;99.90;;;;;;5027506;28;20671;-80
2022/07/23 08:11:38;;;;;;;0.10;0.10;;;16.50;99.90;;;;;;5027059;28;20211;-81
2022/07/23 08:14:03;;;;;;;0.10;0.10;;;16.40;99.90;;;;;;4993686;28;20235;-81
2022/07/23 08:16:29;;;;;;;0.20;0.10;;;16.30;99.90;;;;;;5008996;28;20286;-80
2022/07/23 08:18:54;;;;;;;0.10;0.10;;;16.50;99.90;;;;;;5024371;28;20191;-79
2022/07/23 08:21:20;;;;;;;0.10;0.10;;;16.40;99.90;;;;;;5005725;28;20746;-78
2022/07/23 08:23:45;;;;;;;0.10;0.10;;;16.50;99.90;;;;;;5026338;28;20222;-77
2022/07/23 08:26:11;;;;;;;0.10;0.10;;;16.70;99.90;;;;;;5028876;28;20231;-78
2022/07/23 08:28:37;;;;;;;0.10;0.10;;;16.80;99.90;;;;;;5011125;28;20656;-78
2022/07/23 08:31:02;;;;;;;0.10;0.10;;;16.70;99.90;;;;;;5009658;28;20187;-78
2022/07/23 08:33:28;;;;;;;0.10;0.10;;;16.50;99.90;;;;;;5027046;28;20264;-79
2022/07/23 08:35:54;;;;;;;0.10;0.10;;;16.30;99.90;;;;;;5029282;28;20527;-78
2022/07/23 08:38:21;;;;;;;0.10;0.10;;;16.50;99.90;;;;;;5029366;28;20179;-78
2022/07/23 08:40:49;;;;;;;0.10;0.10;;;16.70;99.90;;;;;;5024632;28;20197;-78
2022/07/23 08:43:17;;;;;;;0.10;0.10;;;16.80;99.90;;;;;;5022854;28;20439;-80
2022/07/23 08:45:45;;;;;;;0.10;0.10;;;17.60;99.90;;;;;;5024329;28;20494;-80
2022/07/23 08:48:19;;;;;;;0.10;0.10;;;18.30;99.90;;;;;;5007531;28;20435;-80
2022/07/23 08:50:47;;;;;;;0.10;0.10;;;18.70;99.90;;;;;;5010229;28;20977;-80
2022/07/23 08:53:14;;;;;;;0.10;0.10;;;19.00;99.90;;;;;;5026902;28;20595;-80
2022/07/23 08:55:39;;;;;;;0.10;0.10;;;18.90;99.90;;;;;;5006746;28;20450;-79
2022/07/23 08:58:06;;;;;;;0.10;0.10;;;18.70;99.90;;;;;;5002898;28;20894;-79
2022/07/23 09:00:33;;;;;;;0.10;0.00;;;18.40;99.90;;;;;;5021535;28;20242;-80
2022/07/23 09:02:58;;;;;;;0.10;0.00;;;18.20;99.90;;;;;;5011326;28;20965;-80
2022/07/23 09:05:24;;;;;;;0.10;0.10;;;18.10;99.90;;;;;;5010908;28;20486;-80
2022/07/23 09:08:14;;;;;;;0.10;0.10;;;18.00;99.90;;;;;;5028672;28;20203;-80
2022/07/23 09:10:57;;;;;;;0.10;0.10;;;17.90;99.90;;;;;;5001156;28;20223;-79
2022/07/23 09:13:47;;;;;;;0.10;0.10;;;17.50;99.90;;;;;;5025556;28;21067;-79
2022/07/23 09:16:15;;;;;;;0.10;0.10;;;17.30;99.90;;;;;;5028773;28;20478;-79
2022/07/23 09:18:41;;;;;;;0.10;0.10;;;17.20;99.90;;;;;;5025483;28;20529;-79
2022/07/23 09:21:12;;;;;;;0.10;0.10;;;17.10;99.90;;;;;;5025514;28;20534;-79
2022/07/23 09:23:47;;;;;;;0.10;0.10;;;17.00;99.90;;;;;;5029590;28;20234;-78
2022/07/23 09:26:33;;;;;;;0.10;0.10;;;17.40;99.90;;;;;;5020480;28;20481;-77
2022/07/23 09:29:02;;;;;;;0.10;0.10;;;17.60;99.90;;;;;;4998002;28;20474;-79
2022/07/23 09:31:34;;;;;;;0.10;0.10;;;17.80;99.90;;;;;;5022236;28;20443;-79
2022/07/23 09:34:13;;;;;;;0.10;0.10;;;17.70;99.90;;;;;;5010201;28;20485;-80
2022/07/23 09:36:39;;;;;;;0.10;0.10;;;18.10;99.90;;;;;;5014440;28;20453;-79
2022/07/23 09:39:05;;;;;;;0.10;0.10;;;18.40;99.90;;;;;;5027448;28;20449;-79
2022/07/23 09:41:39;;;;;;;0.10;0.10;;;18.70;99.90;;;;;;5028816;28;20456;-79
2022/07/23 09:44:10;;;;;;;0.10;0.10;;;18.90;99.90;;;;;;5007092;28;20450;-81
2022/07/23 09:46:35;;;;;;;0.10;0.00;;;19.50;99.90;;;;;;5026111;28;20488;-81
2022/07/23 09:49:12;;;;;;;0.10;0.00;;;19.60;99.90;;;;;;5031703;28;20442;-80
2022/07/23 09:51:52;;;;;;;0.10;0.00;;;20.30;99.90;;;;;;5027341;28;20675;-81
2022/07/23 09:54:39;;;;;;;0.10;0.00;;;20.30;99.90;;;;;;5004062;28;21022;-81
2022/07/23 09:57:07;;;;;;;0.10;0.10;;;20.10;99.90;;;;;;5029543;28;20481;-80
2022/07/23 09:59:36;;;;;;;0.10;0.00;;;19.70;99.90;;;;;;5028719;28;20506;-80
2022/07/23 10:02:04;;;;;;;0.10;0.00;;;19.70;99.90;;;;;;5021969;28;20496;-80
2022/07/23 10:04:30;;;;;;;0.10;0.00;;;19.60;99.90;;;;;;5022956;28;20479;-80
2022/07/23 10:06:58;;;;;;;0.10;0.00;;;19.60;99.90;;;;;;5029260;28;20482;-80
2022/07/23 10:09:33;;;;;;;0.10;0.00;;;19.50;99.90;;;;;;5027100;28;20445;-80
2022/07/23 10:12:29;;;;;;;0.10;0.00;;;19.70;99.90;;;;;;5029419;28;20524;-80
2022/07/23 10:14:48;;;;;;;0.10;0.00;;;19.70;99.90;;;;;;5021616;28;20447;-80
2022/07/23 10:17:16;;;;;;;0.10;0.00;;;19.70;99.90;;;;;;5026497;28;20442;-80
2022/07/23 10:19:42;;;;;;;0.10;0.00;;;19.90;99.90;;;;;;5017860;28;20537;-81
2022/07/23 10:22:11;;;;;;;0.10;0.00;;;20.20;99.90;;;;;;5028028;28;20965;-84
2022/07/23 10:24:58;;;;;;;0.10;0.00;;;20.00;99.90;;;;;;5027906;28;20434;-85
2022/07/23 10:27:49;;;;;;;0.10;0.00;;;19.70;99.90;;;;;;5005384;28;20474;-85
2022/07/23 10:30:22;;;;;;;0.10;0.00;;;19.40;99.90;;;;;;5031869;28;20426;-86
2022/07/23 10:33:29;;;;;;;0.10;0.00;;;19.30;99.90;;;;;;5029439;28;20442;-85
2022/07/23 10:36:23;;;;;;;0.10;0.10;;;19.00;99.90;;;;;;4995224;28;20451;-84
2022/07/23 10:39:06;;;;;;;0.10;0.07;;;18.50;99.90;;;;;;5026804;28;20500;-84
2022/07/23 10:41:32;;;;;;;0.10;0.10;;;18.40;99.90;;;;;;5007224;28;21332;-84
2022/07/23 10:44:14;;;;;;;0.10;0.10;;;18.30;99.90;;;;;;5022224;28;20438;-83
2022/07/23 10:50:18;;;;;;;0.10;0.10;;;17.80;99.90;;;;;;4991118;28;20480;-82
2022/07/23 10:53:07;;;;;;;0.10;0.10;;;17.30;99.90;;;;;;5003346;28;20508;-83
2022/07/23 10:55:33;;;;;;;0.10;0.10;;;17.30;99.90;;;;;;5009955;28;20457;-81
2022/07/23 10:57:59;;;;;;;0.10;0.10;;;17.30;99.90;;;;;;5006616;28;20482;-82
2022/07/23 11:00:26;;;;;;;0.10;0.10;;;17.20;99.90;;;;;;5016130;28;20189;-83
2022/07/23 11:03:01;;;;;;;0.10;0.10;;;17.20;99.90;;;;;;4993201;28;20494;-82
2022/07/23 11:05:47;;;;;;;0.10;0.10;;;17.10;99.90;;;;;;5022099;28;20474;-83
2022/07/23 11:08:19;;;;;;;0.10;0.10;;;17.00;99.90;;;;;;5017623;28;20565;-81
2022/07/23 11:10:51;;;;;;;0.10;0.10;;;17.10;99.90;;;;;;5004959;28;20442;-85
2022/07/23 11:13:22;;;;;;;0.10;0.10;;;17.40;99.90;;;;;;5005950;28;20822;-84
2022/07/23 11:16:11;;;;;;;0.10;0.10;;;17.30;99.90;;;;;;5007090;28;20526;-84
2022/07/23 11:18:40;;;;;;;0.10;0.10;;;17.50;99.90;;;;;;5028714;28;20517;-85
2022/07/23 11:21:26;;;;;;;0.10;0.10;;;17.70;99.90;;;;;;5025856;28;20438;-82
2022/07/23 11:24:16;;;;;;;0.10;0.10;;;17.60;99.90;;;;;;5020241;28;20804;-84
2022/07/23 11:26:52;;;;;;;0.00;0.00;;;17.90;99.90;;;;;;5021592;28;20481;-84
2022/07/23 11:29:35;;;;;;;0.00;0.00;;;18.40;99.90;;;;;;4996426;28;21077;-84
2022/07/23 11:32:05;;;;;;;0.00;0.00;;;19.10;99.90;;;;;;5020429;28;20827;-85
2022/07/23 11:34:32;;;;;;;0.00;0.00;;;19.90;99.90;;;;;;5026427;28;20869;-84
2022/07/23 11:37:01;;;;;;;0.00;0.00;;;20.20;99.90;;;;;;5027087;28;21185;-84
2022/07/23 11:39:30;;;;;;;0.10;0.10;;;19.80;99.90;;;;;;5023366;28;20485;-84
2022/07/23 11:41:57;;;;;;;0.10;0.00;;;19.70;99.90;;;;;;5019113;28;20448;-84
2022/07/23 11:44:27;;;;;;;0.10;0.00;;;19.20;99.90;;;;;;5007039;28;20568;-85
2022/07/23 11:47:04;;;;;;;0.10;0.00;;;19.20;99.90;;;;;;5005060;28;20482;-84
2022/07/23 11:49:29;;;;;;;0.10;0.00;;;18.60;99.90;;;;;;5019798;28;20433;-85
2022/07/23 11:52:13;;;;;;;0.10;0.10;;;18.30;99.90;;;;;;5004021;28;21296;-87
2022/07/23 11:54:53;;;;;;;0.10;0.00;;;18.30;99.90;;;;;;5006469;28;20198;-86
2022/07/23 11:57:23;;;;;;;0.10;0.10;;;18.50;99.90;;;;;;5025950;28;20441;-83
2022/07/23 11:59:52;;;;;;;0.10;0.10;;;18.50;99.90;;;;;;4983537;28;20435;-85
2022/07/23 12:02:20;;;;;;;0.10;0.10;;;18.40;99.90;;;;;;4986696;28;20477;-84
2022/07/23 12:04:48;;;;;;;0.10;0.10;;;18.40;99.90;;;;;;4979394;28;20538;-86
2022/07/23 12:07:23;;;;;;;0.10;0.00;;;18.60;99.90;;;;;;4979012;28;20459;-85
2022/07/23 12:09:52;;;;;;;0.10;0.00;;;19.70;99.90;;;;;;4972178;28;20466;-85
2022/07/23 12:12:18;;;;;;;0.10;0.00;;;20.60;99.90;;;;;;4992334;28;21039;-85
2022/07/23 12:14:57;;;;;;;0.10;0.00;;;21.10;99.90;;;;;;5002766;28;20455;-84
2022/07/23 12:17:32;;;;;;;0.10;0.00;;;21.90;99.90;;;;;;4995164;28;20189;-82
2022/07/23 12:20:00;;;;;;;0.10;0.00;;;23.00;99.90;;;;;;4997404;28;21077;-82
2022/07/23 12:22:34;;;;;;;0.10;0.00;;;23.30;99.90;;;;;;4979099;28;20450;-84
2022/07/23 12:25:02;;;;;;;0.10;0.00;;;21.80;99.90;;;;;;4988714;28;20443;-83
2022/07/23 12:27:28;;;;;;;0.10;0.00;;;20.70;99.90;;;;;;4985251;28;20815;-83
2022/07/23 12:29:54;;;;;;;0.10;0.00;;;20.30;99.90;;;;;;4976149;28;20444;-84
2022/07/23 12:32:28;;;;;;;0.10;0.00;;;20.00;99.90;;;;;;4992320;28;20955;-84
2022/07/23 12:35:05;;;;;;;0.10;0.00;;;19.20;99.90;;;;;;5002118;28;20250;-82
2022/07/23 12:37:40;;;;;;;0.10;0.00;;;18.70;99.90;;;;;;4980555;28;20464;-81
2022/07/23 12:40:57;;;;;;;0.10;0.00;;;18.50;99.90;;;;;;4996063;28;20534;-82
2022/07/23 12:43:31;;;;;;;0.10;0.00;;;18.70;99.90;;;;;;4951899;28;20451;-81
2022/07/23 12:46:04;;;;;;;0.10;0.00;;;18.60;99.90;;;;;;4995084;28;20486;-81
2022/07/23 12:48:36;;;;;;;0.10;0.00;;;18.20;99.90;;;;;;4991883;28;20440;-81
2022/07/23 12:51:14;;;;;;;0.10;0.10;;;18.10;99.90;;;;;;4989589;28;20450;-82
2022/07/23 12:53:50;;;;;;;0.10;0.10;;;17.90;99.90;;;;;;4980599;28;20517;-81
2022/07/23 12:56:40;;;;;;;0.10;0.10;;;17.90;99.90;;;;;;4987337;28;20446;-81